Time;durP1;ratioP1;P1;durP2;ratioP2;P2;SDS_P1;SDS_P2;PMS_P1;PMS_P2;Temp;Humidity;BMP_temperature;BMP_pressure;BME280_temperature;BME280_humidity;BME280_pressure;Samples;Min_cycle;Max_cycle;Signal;HPM_P1;HPM_P2
2022/07/28 00:02:20;;;;;;;1.87;1.60;;;20.50;94.80;;;;;;5071291;28;20452;-69
2022/07/28 00:04:49;;;;;;;4.23;1.80;;;20.50;95.10;;;;;;5072275;28;20457;-70
2022/07/28 00:07:16;;;;;;;1.87;1.80;;;20.50;94.80;;;;;;5072229;28;20465;-70
2022/07/28 00:09:43;;;;;;;1.90;1.80;;;20.60;94.80;;;;;;5072181;28;20955;-70
2022/07/28 00:12:11;;;;;;;2.97;2.00;;;20.50;95.30;;;;;;5072060;28;20488;-70
2022/07/28 00:14:38;;;;;;;2.40;1.70;;;20.50;95.20;;;;;;5072315;28;20483;-70
2022/07/28 00:17:05;;;;;;;2.20;1.90;;;20.30;95.90;;;;;;5072254;28;20464;-70
2022/07/28 00:19:32;;;;;;;2.13;1.80;;;20.20;95.80;;;;;;5072183;28;20453;-70
2022/07/28 00:22:02;;;;;;;2.07;1.77;;;20.10;96.60;;;;;;5070804;28;20966;-70
2022/07/28 00:24:30;;;;;;;3.30;2.07;;;20.00;97.00;;;;;;5071846;28;20994;-70
2022/07/28 00:26:58;;;;;;;3.30;1.87;;;19.90;97.10;;;;;;5071299;28;20548;-70
2022/07/28 00:29:27;;;;;;;3.30;2.20;;;19.90;97.10;;;;;;5071422;28;20463;-70
2022/07/28 00:31:54;;;;;;;2.83;1.90;;;19.80;97.10;;;;;;5071149;28;20485;-70
2022/07/28 00:34:21;;;;;;;3.00;2.00;;;19.90;97.40;;;;;;5071158;28;20457;-70
2022/07/28 00:36:49;;;;;;;1.93;1.83;;;19.80;97.70;;;;;;5070857;28;20457;-71
2022/07/28 00:39:18;;;;;;;2.43;1.87;;;19.70;97.20;;;;;;5071222;28;20809;-70
2022/07/28 00:41:46;;;;;;;2.47;2.00;;;19.60;98.00;;;;;;5071267;28;20465;-70
2022/07/28 00:44:13;;;;;;;2.70;1.80;;;19.60;98.00;;;;;;5069779;28;20468;-70
2022/07/28 00:46:41;;;;;;;4.47;2.30;;;19.60;97.80;;;;;;5071265;28;20445;-70
2022/07/28 00:49:09;;;;;;;2.57;1.97;;;19.60;97.50;;;;;;5071658;28;20460;-71
2022/07/28 00:51:36;;;;;;;2.70;2.13;;;19.70;96.60;;;;;;5072193;28;20964;-71
2022/07/28 00:54:03;;;;;;;3.03;2.00;;;19.60;97.20;;;;;;5071900;28;21064;-70
2022/07/28 00:56:34;;;;;;;4.73;1.90;;;19.70;97.50;;;;;;5071810;28;20456;-70
2022/07/28 00:59:01;;;;;;;4.93;2.03;;;19.50;97.80;;;;;;5071761;28;20461;-70
2022/07/28 01:01:28;;;;;;;2.10;1.70;;;19.30;98.00;;;;;;5071623;28;20480;-70
2022/07/28 01:03:59;;;;;;;2.87;2.13;;;19.40;98.00;;;;;;5071668;28;20456;-70
2022/07/28 01:06:43;;;;;;;3.80;2.47;;;19.40;98.00;;;;;;5071691;28;20840;-70
2022/07/28 01:09:22;;;;;;;3.40;2.20;;;19.50;98.00;;;;;;5071615;28;20460;-70
2022/07/28 01:11:57;;;;;;;2.60;1.77;;;19.40;97.70;;;;;;5071553;28;20463;-70
2022/07/28 01:14:35;;;;;;;2.57;2.00;;;19.40;97.20;;;;;;5071717;28;20468;-70
2022/07/28 01:17:09;;;;;;;2.50;1.90;;;19.30;98.00;;;;;;5070378;28;20516;-71
2022/07/28 01:19:46;;;;;;;2.77;1.90;;;19.10;98.00;;;;;;5071482;28;20460;-70
2022/07/28 01:22:20;;;;;;;2.60;1.93;;;19.00;98.00;;;;;;5071542;28;20471;-70
2022/07/28 01:24:58;;;;;;;3.27;1.97;;;19.00;98.00;;;;;;5071568;28;20521;-70
2022/07/28 01:27:53;;;;;;;2.27;1.53;;;19.00;98.00;;;;;;5071500;28;20457;-70
2022/07/28 01:30:32;;;;;;;2.43;1.80;;;19.00;98.00;;;;;;5071496;28;20795;-71
2022/07/28 01:33:04;;;;;;;2.23;1.77;;;18.90;98.00;;;;;;5071274;28;20980;-71
2022/07/28 01:35:38;;;;;;;2.10;1.73;;;18.80;98.00;;;;;;5071450;28;20480;-70
2022/07/28 01:38:08;;;;;;;3.73;2.43;;;18.60;98.00;;;;;;5071501;28;20449;-70
2022/07/28 01:40:37;;;;;;;2.30;1.93;;;18.60;98.00;;;;;;5071526;28;20461;-70
2022/07/28 01:43:09;;;;;;;4.17;2.60;;;18.50;98.00;;;;;;5071517;28;20453;-70
2022/07/28 01:45:39;;;;;;;2.80;2.10;;;18.30;98.00;;;;;;5071579;28;20773;-70
2022/07/28 01:48:10;;;;;;;2.00;1.60;;;18.30;98.00;;;;;;5072025;28;20461;-70
2022/07/28 01:50:40;;;;;;;2.80;2.10;;;18.10;98.00;;;;;;5074159;28;20963;-70
2022/07/28 01:53:10;;;;;;;2.07;1.70;;;18.20;98.00;;;;;;5075116;28;20484;-70
2022/07/28 01:55:39;;;;;;;5.00;2.17;;;18.00;98.00;;;;;;5074835;28;20480;-70
2022/07/28 01:58:07;;;;;;;2.60;1.77;;;18.00;98.00;;;;;;5074778;28;20457;-71
2022/07/28 02:00:38;;;;;;;3.30;2.00;;;18.00;98.00;;;;;;5074632;28;20479;-71
2022/07/28 02:03:09;;;;;;;2.83;1.97;;;18.10;98.00;;;;;;5074788;28;20815;-70
2022/07/28 02:05:38;;;;;;;2.77;2.00;;;18.10;98.00;;;;;;5074789;28;20510;-70
2022/07/28 02:08:07;;;;;;;2.73;1.93;;;18.00;98.00;;;;;;5073291;28;20472;-70
2022/07/28 02:10:36;;;;;;;3.70;2.10;;;18.00;98.00;;;;;;5074800;28;20448;-70
2022/07/28 02:13:04;;;;;;;4.47;2.30;;;18.00;98.00;;;;;;5074335;28;20480;-70
2022/07/28 02:15:32;;;;;;;3.00;2.20;;;17.90;98.00;;;;;;5074612;28;20460;-70
2022/07/28 02:18:01;;;;;;;2.00;1.90;;;17.80;98.00;;;;;;5072888;28;20935;-70
2022/07/28 02:20:30;;;;;;;2.17;1.70;;;17.80;98.00;;;;;;5074466;28;20484;-70
2022/07/28 02:22:58;;;;;;;3.37;2.20;;;17.70;98.00;;;;;;5074410;28;20452;-70
2022/07/28 02:25:26;;;;;;;2.40;2.00;;;17.80;98.00;;;;;;5072863;28;20489;-70
2022/07/28 02:27:58;;;;;;;3.30;2.10;;;17.60;98.00;;;;;;5074007;28;20461;-70
2022/07/28 02:30:34;;;;;;;4.20;1.97;;;17.60;98.00;;;;;;5074398;28;20464;-70
2022/07/28 02:33:08;;;;;;;2.50;1.90;;;17.50;98.00;;;;;;5074037;28;20487;-70
2022/07/28 02:35:44;;;;;;;3.97;2.07;;;17.50;98.00;;;;;;5073077;28;20443;-70
2022/07/28 02:38:19;;;;;;;3.00;1.90;;;17.50;98.00;;;;;;5074070;28;20484;-70
2022/07/28 02:40:48;;;;;;;2.53;2.00;;;17.50;98.00;;;;;;5074166;28;20452;-70
2022/07/28 02:43:20;;;;;;;2.70;2.30;;;17.50;98.00;;;;;;5074060;28;20479;-71
2022/07/28 02:45:51;;;;;;;2.83;1.80;;;17.50;98.00;;;;;;5074224;28;20552;-71
2022/07/28 02:48:24;;;;;;;4.03;2.10;;;17.40;98.00;;;;;;5074197;28;20457;-71
2022/07/28 02:50:53;;;;;;;2.50;1.90;;;17.20;98.00;;;;;;5074006;28;20461;-71
2022/07/28 02:53:22;;;;;;;3.10;1.90;;;17.20;98.00;;;;;;5074015;28;20487;-71
2022/07/28 02:55:50;;;;;;;2.13;1.83;;;17.10;98.00;;;;;;5073382;28;20457;-71
2022/07/28 02:58:20;;;;;;;2.30;2.07;;;17.10;98.00;;;;;;5073707;28;20452;-71
2022/07/28 03:00:49;;;;;;;2.80;2.13;;;17.10;98.00;;;;;;5073442;28;20514;-71
2022/07/28 03:03:19;;;;;;;2.17;1.80;;;17.10;98.00;;;;;;5073662;28;20452;-71
2022/07/28 03:05:47;;;;;;;3.00;1.93;;;17.00;98.00;;;;;;5073830;28;20460;-71
2022/07/28 03:08:14;;;;;;;2.50;2.00;;;17.00;98.00;;;;;;5073420;28;20488;-71
2022/07/28 03:10:42;;;;;;;3.43;2.40;;;17.00;98.00;;;;;;5073466;28;20456;-71
2022/07/28 03:13:09;;;;;;;13.70;6.60;;;17.00;98.00;;;;;;5073188;28;20485;-71
2022/07/28 03:15:40;;;;;;;8.23;3.67;;;17.00;98.00;;;;;;5073424;28;20828;-71
2022/07/28 03:18:07;;;;;;;4.07;2.80;;;17.00;98.00;;;;;;5073318;28;20966;-71
2022/07/28 03:20:36;;;;;;;3.20;1.97;;;17.00;98.00;;;;;;5073172;28;20989;-71
2022/07/28 03:23:04;;;;;;;2.43;2.20;;;17.20;98.00;;;;;;5073385;28;20457;-71
2022/07/28 03:25:39;;;;;;;2.37;1.40;;;17.30;98.00;;;;;;5071689;28;20453;-71
2022/07/28 03:28:09;;;;;;;2.60;2.00;;;17.20;98.00;;;;;;5073103;28;20463;-71
2022/07/28 03:30:42;;;;;;;2.30;1.90;;;17.20;98.00;;;;;;5073206;28;20472;-71
2022/07/28 03:33:11;;;;;;;3.00;2.10;;;17.10;98.00;;;;;;5071643;28;20512;-71
2022/07/28 03:35:43;;;;;;;2.17;1.80;;;17.00;98.00;;;;;;5073020;28;20453;-71
2022/07/28 03:38:14;;;;;;;2.33;1.80;;;16.90;98.00;;;;;;5072980;28;20465;-71
2022/07/28 03:40:42;;;;;;;4.70;1.63;;;17.00;98.00;;;;;;5072966;28;20796;-71
2022/07/28 03:43:11;;;;;;;2.00;1.87;;;17.00;98.00;;;;;;5071814;28;20453;-71
2022/07/28 03:45:38;;;;;;;2.13;2.00;;;17.00;98.00;;;;;;5072915;28;20455;-70
2022/07/28 03:48:06;;;;;;;2.00;1.67;;;17.10;98.00;;;;;;5073007;28;20468;-71
2022/07/28 03:50:33;;;;;;;2.30;1.90;;;17.30;98.00;;;;;;5073202;28;20457;-71
2022/07/28 03:53:02;;;;;;;2.70;2.20;;;17.20;98.00;;;;;;5071521;28;20488;-71
2022/07/28 03:55:30;;;;;;;2.20;1.67;;;17.10;98.00;;;;;;5072633;28;20559;-71
2022/07/28 03:57:57;;;;;;;4.47;2.43;;;17.10;98.00;;;;;;5072371;28;20496;-71
2022/07/28 04:00:25;;;;;;;1.70;1.70;;;17.20;98.00;;;;;;5072583;28;20456;-71
2022/07/28 04:02:52;;;;;;;6.50;2.10;;;17.00;98.00;;;;;;5072228;28;20584;-71
2022/07/28 04:05:20;;;;;;;2.20;1.77;;;17.00;98.00;;;;;;5072425;28;20468;-71
2022/07/28 04:07:47;;;;;;;3.20;1.90;;;17.00;98.00;;;;;;5072326;28;20854;-71
2022/07/28 04:10:17;;;;;;;3.27;1.90;;;17.00;98.00;;;;;;5072289;28;20951;-71
2022/07/28 04:12:49;;;;;;;3.70;2.33;;;16.90;98.00;;;;;;5071700;28;20453;-71
2022/07/28 04:15:17;;;;;;;2.37;2.00;;;16.80;98.00;;;;;;5072329;28;20457;-71
2022/07/28 04:17:44;;;;;;;2.63;1.93;;;16.90;98.00;;;;;;5072083;28;20457;-71
2022/07/28 04:20:12;;;;;;;2.93;1.73;;;16.80;98.00;;;;;;5072255;28;20865;-71
2022/07/28 04:22:39;;;;;;;2.67;2.03;;;16.80;98.00;;;;;;5072131;28;20680;-71
2022/07/28 04:25:07;;;;;;;2.57;1.80;;;16.80;98.00;;;;;;5071339;28;20457;-71
2022/07/28 04:27:36;;;;;;;3.00;2.00;;;16.70;98.00;;;;;;5072210;28;20461;-71
2022/07/28 04:30:05;;;;;;;2.43;1.93;;;16.90;98.00;;;;;;5072230;28;20449;-71
2022/07/28 04:32:32;;;;;;;2.53;1.87;;;16.90;98.00;;;;;;5070752;28;20587;-71
2022/07/28 04:34:59;;;;;;;3.07;2.00;;;17.00;98.00;;;;;;5072200;28;20476;-71
2022/07/28 04:37:27;;;;;;;2.53;1.90;;;17.00;98.00;;;;;;5072096;28;20457;-71
2022/07/28 04:39:54;;;;;;;2.30;1.90;;;17.00;98.00;;;;;;5072200;28;20457;-71
2022/07/28 04:42:21;;;;;;;2.50;1.80;;;17.10;98.00;;;;;;5072082;28;20810;-71
2022/07/28 04:44:49;;;;;;;2.50;1.97;;;17.20;98.00;;;;;;5072132;28;20475;-71
2022/07/28 04:47:17;;;;;;;2.27;2.10;;;17.20;98.00;;;;;;5072021;28;20961;-71
2022/07/28 04:49:44;;;;;;;2.27;1.83;;;17.30;98.00;;;;;;5072026;28;20468;-71
2022/07/28 04:52:14;;;;;;;2.67;1.83;;;17.30;98.00;;;;;;5072241;28;20453;-71
2022/07/28 04:54:42;;;;;;;3.77;2.10;;;17.50;98.00;;;;;;5071498;28;20492;-71
2022/07/28 04:57:10;;;;;;;2.90;2.20;;;17.50;98.00;;;;;;5071847;28;20514;-71
2022/07/28 04:59:37;;;;;;;3.40;2.10;;;17.70;98.00;;;;;;5071761;28;20454;-71
2022/07/28 05:02:06;;;;;;;2.47;2.13;;;17.80;98.00;;;;;;5071868;28;20461;-71
2022/07/28 05:04:34;;;;;;;2.30;1.93;;;17.90;98.00;;;;;;5071605;28;20456;-71
2022/07/28 05:07:01;;;;;;;3.30;2.27;;;17.90;98.00;;;;;;5070086;28;20456;-71
2022/07/28 05:09:28;;;;;;;2.27;2.03;;;18.00;98.00;;;;;;5071504;28;20461;-71
2022/07/28 05:11:55;;;;;;;2.20;1.90;;;18.10;98.00;;;;;;5071635;28;20448;-71
2022/07/28 05:14:22;;;;;;;2.83;2.13;;;18.20;98.00;;;;;;5071399;28;20495;-71
2022/07/28 05:16:49;;;;;;;3.93;2.10;;;18.30;98.00;;;;;;5071787;28;20456;-71
2022/07/28 05:19:18;;;;;;;2.43;1.70;;;18.30;98.00;;;;;;5071605;28;20459;-71
2022/07/28 05:21:46;;;;;;;2.40;2.00;;;18.40;98.00;;;;;;5071681;28;20488;-71
2022/07/28 05:24:13;;;;;;;3.77;2.47;;;18.40;98.00;;;;;;5072813;28;20453;-71
2022/07/28 05:26:48;;;;;;;2.70;2.10;;;18.30;98.00;;;;;;5075595;28;20947;-71
2022/07/28 05:29:15;;;;;;;4.67;2.20;;;18.40;98.00;;;;;;5075532;28;20463;-71
2022/07/28 05:31:42;;;;;;;4.87;2.53;;;18.40;98.00;;;;;;5075621;28;20953;-71
2022/07/28 05:34:10;;;;;;;3.07;2.10;;;18.50;98.00;;;;;;5075407;28;20489;-71
2022/07/28 05:36:38;;;;;;;3.30;2.37;;;18.60;98.00;;;;;;5075092;28;20452;-71
2022/07/28 05:39:05;;;;;;;4.47;2.50;;;18.60;98.00;;;;;;5075254;28;20455;-71
2022/07/28 05:41:32;;;;;;;2.53;1.90;;;18.70;98.00;;;;;;5075345;28;20472;-71
2022/07/28 05:44:00;;;;;;;3.20;2.40;;;18.70;98.00;;;;;;5075302;28;20831;-71
2022/07/28 05:46:27;;;;;;;3.13;2.20;;;18.70;98.00;;;;;;5075408;28;20461;-72
2022/07/28 05:48:54;;;;;;;4.33;2.47;;;18.60;98.00;;;;;;5075113;28;20452;-71
2022/07/28 05:51:21;;;;;;;3.57;2.17;;;18.60;98.00;;;;;;5075164;28;20927;-71
2022/07/28 05:53:49;;;;;;;2.60;2.00;;;18.70;98.00;;;;;;5074958;28;20473;-71
2022/07/28 05:56:17;;;;;;;2.90;2.13;;;18.70;98.00;;;;;;5075054;28;20479;-70
2022/07/28 05:58:44;;;;;;;3.03;2.47;;;18.90;98.00;;;;;;5072939;28;20464;-71
2022/07/28 06:01:12;;;;;;;2.80;2.10;;;18.90;98.00;;;;;;5074207;28;20980;-73
2022/07/28 06:03:39;;;;;;;2.17;2.07;;;18.90;98.00;;;;;;5073960;28;20457;-72
2022/07/28 06:06:07;;;;;;;2.30;1.93;;;18.90;98.00;;;;;;5074101;28;20644;-72
2022/07/28 06:08:35;;;;;;;3.47;2.20;;;19.10;98.00;;;;;;5073785;28;20452;-73
2022/07/28 06:11:08;;;;;;;2.83;2.03;;;19.20;98.00;;;;;;5074114;28;20511;-72
2022/07/28 06:13:40;;;;;;;2.97;2.10;;;19.30;98.00;;;;;;5073655;28;20488;-73
2022/07/28 06:16:07;;;;;;;3.57;2.30;;;19.30;98.00;;;;;;5073911;28;20453;-72
2022/07/28 06:18:35;;;;;;;3.80;2.40;;;19.30;98.00;;;;;;5073782;28;20982;-72
2022/07/28 06:21:02;;;;;;;3.20;2.40;;;19.40;98.00;;;;;;5073747;28;20460;-72
2022/07/28 06:23:29;;;;;;;3.47;2.10;;;19.40;98.00;;;;;;5073340;28;20464;-72
2022/07/28 06:25:56;;;;;;;5.77;2.10;;;19.40;98.00;;;;;;5072376;28;20931;-71
2022/07/28 06:28:25;;;;;;;3.70;1.60;;;19.70;98.00;;;;;;5073522;28;20468;-72
2022/07/28 06:30:52;;;;;;;3.10;2.60;;;20.10;98.00;;;;;;5073732;28;20460;-72
2022/07/28 06:33:19;;;;;;;3.87;2.30;;;20.60;98.00;;;;;;5073209;28;20464;-71
2022/07/28 06:35:46;;;;;;;4.03;2.07;;;20.90;98.00;;;;;;5072701;28;20477;-71
2022/07/28 06:38:14;;;;;;;3.77;2.30;;;21.30;98.00;;;;;;5073447;28;20457;-71
2022/07/28 06:40:43;;;;;;;3.43;2.30;;;21.60;98.00;;;;;;5072109;28;20954;-72
2022/07/28 06:43:12;;;;;;;2.73;2.10;;;21.70;98.00;;;;;;5073169;28;20457;-72
2022/07/28 06:45:40;;;;;;;3.13;2.27;;;22.00;97.90;;;;;;5072013;28;20512;-72
2022/07/28 06:48:08;;;;;;;3.47;2.10;;;22.20;97.10;;;;;;5073157;28;20460;-72
2022/07/28 06:50:38;;;;;;;3.37;2.20;;;22.30;97.00;;;;;;5073091;28;20456;-71
2022/07/28 06:53:06;;;;;;;5.47;2.83;;;22.10;97.00;;;;;;5073141;28;20457;-71
2022/07/28 06:55:33;;;;;;;2.87;2.43;;;22.20;96.40;;;;;;5072080;28;20503;-71
2022/07/28 06:58:01;;;;;;;4.13;2.77;;;22.00;96.20;;;;;;5073189;28;20456;-71
2022/07/28 07:00:28;;;;;;;7.40;3.50;;;21.90;97.10;;;;;;5072764;28;20456;-71
2022/07/28 07:02:57;;;;;;;5.17;2.97;;;21.90;97.70;;;;;;5073223;28;20460;-71
2022/07/28 07:05:24;;;;;;;3.77;2.40;;;22.00;97.20;;;;;;5073036;28;20506;-72
2022/07/28 07:07:51;;;;;;;3.17;2.53;;;22.00;97.30;;;;;;5072927;28;20449;-71
2022/07/28 07:10:18;;;;;;;4.83;2.70;;;22.10;97.60;;;;;;5073313;28;20452;-71
2022/07/28 07:12:47;;;;;;;4.20;2.60;;;22.30;97.00;;;;;;5071754;28;20461;-71
2022/07/28 07:15:14;;;;;;;4.83;3.27;;;22.50;96.70;;;;;;5050577;28;20485;-71
2022/07/28 07:17:45;;;;;;;5.07;2.90;;;22.70;96.10;;;;;;5060385;28;20462;-71
2022/07/28 07:20:15;;;;;;;4.50;3.00;;;22.80;95.80;;;;;;5061292;28;20460;-71
2022/07/28 07:22:43;;;;;;;5.43;3.00;;;22.80;96.10;;;;;;5059816;28;20457;-72
2022/07/28 07:25:11;;;;;;;6.23;3.20;;;23.00;95.40;;;;;;5050558;28;20454;-72
2022/07/28 07:27:38;;;;;;;5.97;3.50;;;23.00;94.90;;;;;;5066956;28;20453;-72
2022/07/28 07:30:06;;;;;;;5.23;3.17;;;22.90;95.70;;;;;;5051898;28;20457;-72
2022/07/28 07:32:34;;;;;;;5.20;2.77;;;22.90;95.80;;;;;;5059180;28;20469;-71
2022/07/28 07:35:01;;;;;;;4.97;3.03;;;23.00;95.80;;;;;;5052131;28;20485;-71
2022/07/28 07:37:31;;;;;;;5.77;3.23;;;22.80;95.60;;;;;;5059891;28;20461;-72
2022/07/28 07:39:58;;;;;;;5.50;3.00;;;22.90;95.80;;;;;;5051240;28;20457;-72
2022/07/28 07:42:26;;;;;;;7.33;3.23;;;22.80;95.90;;;;;;5060626;28;20492;-72
2022/07/28 07:44:53;;;;;;;5.63;3.30;;;22.90;96.90;;;;;;5051582;28;20548;-71
2022/07/28 07:47:20;;;;;;;6.07;3.00;;;22.90;97.30;;;;;;5057548;28;20461;-71
2022/07/28 07:49:48;;;;;;;4.90;3.23;;;23.10;96.20;;;;;;5049885;28;20465;-71
2022/07/28 07:52:15;;;;;;;5.23;3.00;;;23.00;96.60;;;;;;5050517;28;20986;-71
2022/07/28 07:54:44;;;;;;;5.27;3.40;;;23.00;96.60;;;;;;5058572;28;20484;-72
2022/07/28 07:57:11;;;;;;;6.90;4.27;;;23.00;96.20;;;;;;5058961;28;20512;-71
2022/07/28 07:59:38;;;;;;;6.57;3.80;;;23.10;97.10;;;;;;5049701;28;20465;-72
2022/07/28 08:02:06;;;;;;;6.97;3.40;;;23.10;97.70;;;;;;5057432;28;20461;-71
2022/07/28 08:04:33;;;;;;;5.43;3.00;;;23.20;96.60;;;;;;5049762;28;20449;-71
2022/07/28 08:07:07;;;;;;;5.23;3.47;;;23.30;97.10;;;;;;5049399;28;20884;-71
2022/07/28 08:09:35;;;;;;;4.90;3.50;;;23.40;96.00;;;;;;5050257;28;20469;-72
2022/07/28 08:12:05;;;;;;;4.90;3.30;;;23.60;96.50;;;;;;5058408;28;20943;-71
2022/07/28 08:14:32;;;;;;;5.23;3.30;;;23.60;96.20;;;;;;5050355;28;20488;-71
2022/07/28 08:16:59;;;;;;;7.10;3.63;;;23.70;95.70;;;;;;5058536;28;20822;-72
2022/07/28 08:19:27;;;;;;;7.17;3.10;;;23.90;95.30;;;;;;5046783;28;20465;-72
2022/07/28 08:21:55;;;;;;;4.57;2.90;;;24.00;95.00;;;;;;5059719;28;20460;-72
2022/07/28 08:24:22;;;;;;;6.03;3.83;;;24.10;95.80;;;;;;5068147;28;20461;-72
2022/07/28 08:26:50;;;;;;;5.70;3.00;;;24.30;95.50;;;;;;5048840;28;20453;-73
2022/07/28 08:29:18;;;;;;;6.73;3.60;;;24.50;95.40;;;;;;5048007;28;20581;-72
2022/07/28 08:31:45;;;;;;;6.07;3.10;;;24.60;94.20;;;;;;5048535;28;20454;-72
2022/07/28 08:34:12;;;;;;;6.97;3.40;;;24.60;94.00;;;;;;5060926;28;20495;-72
2022/07/28 08:36:40;;;;;;;4.40;3.20;;;24.70;93.10;;;;;;5059347;28;20461;-72
2022/07/28 08:39:07;;;;;;;5.53;3.40;;;24.80;93.40;;;;;;5057978;28;20453;-72
2022/07/28 08:41:46;;;;;;;5.47;3.10;;;24.80;93.60;;;;;;5058975;28;20546;-72
2022/07/28 08:44:17;;;;;;;6.70;3.83;;;25.00;93.30;;;;;;5042817;28;20458;-72
2022/07/28 08:46:48;;;;;;;6.57;3.57;;;25.10;93.80;;;;;;5066800;28;20453;-72
2022/07/28 08:49:18;;;;;;;7.30;3.60;;;25.30;92.90;;;;;;5055738;28;20474;-72
2022/07/28 08:51:48;;;;;;;5.27;3.40;;;25.40;92.90;;;;;;5042329;28;20466;-73
2022/07/28 08:54:17;;;;;;;5.40;3.50;;;25.50;91.80;;;;;;5060098;28;20523;-72
2022/07/28 08:56:47;;;;;;;5.07;3.33;;;25.70;91.80;;;;;;5068195;28;20465;-73
2022/07/28 08:59:14;;;;;;;5.80;3.67;;;25.70;92.70;;;;;;5055871;28;20465;-73
2022/07/28 09:01:43;;;;;;;4.90;3.43;;;25.80;91.30;;;;;;5058708;28;21071;-72
2022/07/28 09:04:12;;;;;;;5.47;3.27;;;25.90;90.80;;;;;;5043299;28;20467;-72
2022/07/28 09:06:42;;;;;;;6.77;3.90;;;26.00;91.40;;;;;;5067662;28;20951;-72
2022/07/28 09:09:09;;;;;;;5.80;3.33;;;26.10;90.40;;;;;;5056837;28;20481;-73
2022/07/28 09:11:36;;;;;;;5.60;3.77;;;26.20;90.20;;;;;;5049291;28;20461;-72
2022/07/28 09:14:04;;;;;;;5.10;3.27;;;26.30;90.30;;;;;;5058821;28;20468;-72
2022/07/28 09:16:31;;;;;;;5.00;3.53;;;26.50;90.50;;;;;;5060946;28;20500;-72
2022/07/28 09:21:43;;;;;;;6.40;3.63;;;26.60;89.00;;;;;;5053079;28;20465;-73
2022/07/28 09:24:17;;;;;;;8.10;3.67;;;26.60;89.10;;;;;;5062910;28;20944;-73
2022/07/28 09:27:00;;;;;;;7.40;3.80;;;26.80;89.40;;;;;;5047759;28;20456;-73
2022/07/28 09:29:28;;;;;;;6.00;3.70;;;26.90;89.00;;;;;;5065158;28;20541;-73
2022/07/28 09:31:56;;;;;;;6.00;3.60;;;27.00;88.90;;;;;;5058985;28;20465;-72
2022/07/28 09:34:24;;;;;;;7.00;4.03;;;27.20;89.40;;;;;;5065650;28;20531;-72
2022/07/28 09:36:53;;;;;;;4.87;3.27;;;27.50;87.30;;;;;;5050625;28;20461;-73
2022/07/28 09:39:31;;;;;;;5.33;3.50;;;27.60;86.70;;;;;;5048950;28;20481;-72
2022/07/28 09:42:00;;;;;;;4.67;3.30;;;27.70;85.70;;;;;;5065841;28;20985;-73
2022/07/28 09:44:28;;;;;;;6.80;3.63;;;27.50;86.10;;;;;;5058821;28;20457;-73
2022/07/28 09:46:56;;;;;;;6.83;3.70;;;27.30;86.70;;;;;;5057125;28;20460;-73
2022/07/28 09:49:39;;;;;;;6.00;3.80;;;27.20;87.00;;;;;;5054530;28;20469;-73
2022/07/28 09:52:08;;;;;;;4.07;3.10;;;27.20;88.80;;;;;;5040946;28;20515;-73
2022/07/28 09:54:35;;;;;;;4.67;3.50;;;27.40;87.40;;;;;;5067309;28;20449;-73
2022/07/28 09:57:03;;;;;;;6.57;3.53;;;27.60;87.20;;;;;;5049758;28;20576;-73
2022/07/28 09:59:41;;;;;;;9.23;4.10;;;28.00;87.10;;;;;;5057744;28;20449;-73
2022/07/28 10:02:11;;;;;;;5.10;3.33;;;28.30;84.10;;;;;;5047832;28;20460;-73
2022/07/28 10:04:40;;;;;;;4.40;3.40;;;28.50;85.10;;;;;;5048877;28;20472;-73
2022/07/28 10:07:10;;;;;;;6.77;3.97;;;28.70;83.40;;;;;;5058832;28;20445;-70
2022/07/28 10:09:40;;;;;;;7.63;4.27;;;28.80;83.70;;;;;;5058407;28;20794;-69
2022/07/28 10:12:17;;;;;;;8.00;3.60;;;28.80;82.80;;;;;;5063679;28;20789;-70
2022/07/28 10:19:57;;;;;;;6.30;3.40;;;29.00;82.20;;;;;;5012960;28;20471;-71
2022/07/28 10:22:31;;;;;;;5.87;4.07;;;29.00;82.10;;;;;;5014490;28;20470;-71
2022/07/28 10:25:02;;;;;;;5.07;3.33;;;28.80;82.40;;;;;;5014897;28;20822;-71
2022/07/28 10:27:30;;;;;;;6.80;4.00;;;28.70;84.10;;;;;;5013572;28;20474;-71
2022/07/28 10:30:01;;;;;;;5.80;3.53;;;28.90;82.90;;;;;;5014730;28;20459;-72
2022/07/28 10:32:29;;;;;;;5.90;3.70;;;29.00;82.60;;;;;;5014631;28;20455;-72
2022/07/28 10:35:02;;;;;;;6.50;3.43;;;29.20;82.80;;;;;;5014369;28;20463;-71
2022/07/28 10:37:35;;;;;;;4.77;3.43;;;29.50;81.40;;;;;;5014076;28;20459;-72
2022/07/28 10:40:05;;;;;;;5.57;3.53;;;29.80;80.70;;;;;;5014010;28;20464;-72
2022/07/28 10:42:32;;;;;;;4.10;3.23;;;29.70;80.30;;;;;;5014369;28;20491;-71
2022/07/28 10:45:01;;;;;;;5.30;3.10;;;29.50;80.10;;;;;;5014643;28;20489;-71
2022/07/28 10:47:28;;;;;;;4.83;3.57;;;29.50;80.80;;;;;;5015350;28;20455;-73
2022/07/28 10:49:56;;;;;;;5.53;4.00;;;29.70;80.50;;;;;;5014180;28;20978;-72
2022/07/28 10:52:24;;;;;;;6.00;3.77;;;29.70;80.00;;;;;;5014290;28;20466;-72
2022/07/28 10:55:03;;;;;;;5.37;3.40;;;29.60;80.00;;;;;;5014150;28;20458;-72
2022/07/28 10:57:33;;;;;;;6.50;3.83;;;29.50;80.00;;;;;;5014240;28;20459;-72
2022/07/28 11:00:16;;;;;;;6.33;3.87;;;29.50;79.80;;;;;;4997415;28;20853;-72
2022/07/28 11:02:47;;;;;;;6.17;3.50;;;29.70;79.90;;;;;;5013133;28;20467;-72
2022/07/28 11:05:35;;;;;;;5.93;3.60;;;30.20;78.60;;;;;;5014180;28;21031;-72
2022/07/28 11:08:05;;;;;;;4.80;3.60;;;30.70;78.90;;;;;;5013789;28;20846;-73
2022/07/28 11:10:45;;;;;;;5.77;3.17;;;31.10;77.30;;;;;;5014090;28;20507;-72
2022/07/28 11:13:28;;;;;;;5.03;3.67;;;31.50;76.30;;;;;;5013721;28;20470;-72
2022/07/28 11:15:57;;;;;;;7.90;4.07;;;31.40;74.50;;;;;;5013921;28;20519;-72
2022/07/28 11:18:24;;;;;;;5.13;3.47;;;31.40;74.80;;;;;;5013613;28;20479;-74
2022/07/28 11:21:08;;;;;;;5.30;3.90;;;31.60;74.40;;;;;;5013218;28;20451;-72
2022/07/28 11:23:40;;;;;;;7.17;4.03;;;31.70;71.90;;;;;;5013699;28;20463;-73
2022/07/28 11:26:43;;;;;;;9.23;3.60;;;32.00;72.10;;;;;;5013808;28;20466;-72
2022/07/28 11:29:46;;;;;;;4.67;3.63;;;31.90;74.50;;;;;;5013353;28;20462;-73
2022/07/28 11:32:14;;;;;;;5.37;3.23;;;32.10;73.30;;;;;;5013566;28;20491;-72
2022/07/28 11:35:05;;;;;;;4.80;3.17;;;32.40;72.30;;;;;;5013581;28;20483;-73
2022/07/28 11:37:53;;;;;;;4.20;3.07;;;32.70;70.80;;;;;;5013502;28;20491;-72
2022/07/28 11:40:31;;;;;;;3.77;2.97;;;32.90;70.50;;;;;;5017807;28;20454;-73
2022/07/28 11:43:33;;;;;;;4.20;3.30;;;32.90;69.50;;;;;;5032124;28;20791;-72
2022/07/28 11:46:33;;;;;;;4.50;3.33;;;32.80;69.00;;;;;;5033114;28;20469;-70
2022/07/28 11:49:26;;;;;;;4.23;2.90;;;32.80;69.40;;;;;;5032981;28;20463;-73
2022/07/28 11:52:17;;;;;;;6.20;3.30;;;32.80;69.80;;;;;;5031798;28;20532;-73
2022/07/28 11:54:54;;;;;;;5.40;3.83;;;33.20;69.90;;;;;;5032938;28;20458;-73
2022/07/28 11:57:26;;;;;;;5.13;3.35;;;33.60;69.30;;;;;;5031477;28;20453;-63
2022/07/28 11:59:59;;;;;;;3.50;2.90;;;33.60;69.10;;;;;;5032746;28;20204;-66
2022/07/28 12:02:32;;;;;;;5.47;3.50;;;33.60;67.90;;;;;;5032816;28;20466;-66
2022/07/28 12:05:07;;;;;;;5.20;3.37;;;33.50;68.40;;;;;;5032658;28;20463;-67
2022/07/28 12:07:42;;;;;;;6.07;3.80;;;33.50;68.70;;;;;;5032364;28;20944;-67
2022/07/28 12:10:40;;;;;;;5.57;3.43;;;33.50;67.60;;;;;;5032577;28;20956;-68
2022/07/28 12:13:07;;;;;;;4.80;3.20;;;33.30;69.20;;;;;;5032108;28;20490;-73
2022/07/28 12:15:35;;;;;;;5.03;3.40;;;33.00;68.20;;;;;;5032281;28;20509;-67
2022/07/28 12:18:03;;;;;;;4.90;3.47;;;32.60;69.40;;;;;;5032120;28;20471;-72
2022/07/28 12:20:33;;;;;;;4.27;3.20;;;32.20;71.20;;;;;;5031861;28;20463;-65
2022/07/28 12:23:04;;;;;;;5.83;3.50;;;32.10;69.70;;;;;;5031196;28;20442;-69
2022/07/28 12:25:40;;;;;;;5.47;3.47;;;32.50;68.80;;;;;;5032194;28;20460;-68
2022/07/28 12:28:18;;;;;;;5.70;3.23;;;32.60;69.80;;;;;;5030635;28;20489;-65
2022/07/28 12:30:46;;;;;;;5.67;3.47;;;32.60;69.20;;;;;;5032205;28;20458;-63
2022/07/28 12:33:22;;;;;;;5.23;3.37;;;32.70;68.50;;;;;;5031757;28;20490;-67
2022/07/28 12:35:51;;;;;;;4.10;3.40;;;32.60;70.40;;;;;;5014510;28;20482;-65
2022/07/28 12:38:21;;;;;;;6.13;3.77;;;32.50;69.50;;;;;;5032009;28;20488;-67
2022/07/28 12:40:48;;;;;;;6.70;3.80;;;32.20;70.20;;;;;;5032031;28;20553;-70
2022/07/28 12:43:25;;;;;;;3.97;3.00;;;32.00;70.70;;;;;;5032043;28;20983;-69
2022/07/28 12:45:52;;;;;;;4.40;3.00;;;31.90;69.60;;;;;;5032071;28;21102;-66
2022/07/28 12:48:24;;;;;;;4.40;3.17;;;32.00;70.00;;;;;;5031836;28;20454;-66
2022/07/28 12:50:51;;;;;;;4.70;3.47;;;32.30;70.60;;;;;;5032116;28;20463;-71
2022/07/28 12:53:21;;;;;;;5.30;3.47;;;32.70;68.60;;;;;;5030812;28;20459;-67
2022/07/28 12:55:48;;;;;;;6.33;3.90;;;32.50;68.80;;;;;;5032136;28;20493;-70
2022/07/28 12:58:25;;;;;;;4.73;3.17;;;32.60;68.90;;;;;;5030759;28;20489;-72
2022/07/28 13:00:53;;;;;;;5.07;3.57;;;32.70;69.80;;;;;;5031678;28;20512;-67
2022/07/28 13:03:24;;;;;;;4.77;3.43;;;33.10;68.70;;;;;;5031939;28;20463;-68
2022/07/28 13:06:04;;;;;;;5.27;3.53;;;33.30;68.20;;;;;;5031909;28;20977;-70
2022/07/28 13:08:40;;;;;;;7.07;4.20;;;33.10;68.40;;;;;;5031680;28;20858;-69
2022/07/28 13:11:09;;;;;;;3.93;3.00;;;32.80;67.80;;;;;;5031818;28;20459;-72
2022/07/28 13:13:50;;;;;;;4.77;3.30;;;32.90;68.00;;;;;;5031728;28;20458;-68